sensor_id;sensor_type;location;lat;lon;timestamp;temperature;humidity
851;DHT22;412;51.400;7.480;2023-06-14T00:01:24;19.80;79.90
851;DHT22;412;51.400;7.480;2023-06-14T00:03:50;19.70;79.30
851;DHT22;412;51.400;7.480;2023-06-14T00:06:16;19.60;78.70
851;DHT22;412;51.400;7.480;2023-06-14T00:08:43;19.60;78.60
851;DHT22;412;51.400;7.480;2023-06-14T00:11:09;19.60;78.30
851;DHT22;412;51.400;7.480;2023-06-14T00:13:35;19.60;77.70
851;DHT22;412;51.400;7.480;2023-06-14T00:16:00;19.60;77.70
851;DHT22;412;51.400;7.480;2023-06-14T00:18:26;19.50;78.10
851;DHT22;412;51.400;7.480;2023-06-14T00:20:55;19.60;78.30
851;DHT22;412;51.400;7.480;2023-06-14T00:23:21;19.60;77.50
851;DHT22;412;51.400;7.480;2023-06-14T00:25:47;19.50;77.90
851;DHT22;412;51.400;7.480;2023-06-14T00:28:13;19.40;77.90
851;DHT22;412;51.400;7.480;2023-06-14T00:30:39;19.30;78.20
851;DHT22;412;51.400;7.480;2023-06-14T00:33:05;19.30;78.90
851;DHT22;412;51.400;7.480;2023-06-14T00:35:31;19.30;78.80
851;DHT22;412;51.400;7.480;2023-06-14T00:37:57;19.30;79.00
851;DHT22;412;51.400;7.480;2023-06-14T00:40:22;19.30;79.10
851;DHT22;412;51.400;7.480;2023-06-14T00:42:48;19.30;79.20
851;DHT22;412;51.400;7.480;2023-06-14T00:45:15;19.30;78.90
851;DHT22;412;51.400;7.480;2023-06-14T00:47:42;19.30;78.90
851;DHT22;412;51.400;7.480;2023-06-14T00:50:09;19.40;79.10
851;DHT22;412;51.400;7.480;2023-06-14T00:52:36;19.40;78.50
851;DHT22;412;51.400;7.480;2023-06-14T00:55:02;19.40;79.50
851;DHT22;412;51.400;7.480;2023-06-14T00:57:27;19.40;78.30
851;DHT22;412;51.400;7.480;2023-06-14T00:59:55;19.40;77.60
851;DHT22;412;51.400;7.480;2023-06-14T01:02:21;19.40;77.90
851;DHT22;412;51.400;7.480;2023-06-14T01:04:48;19.40;78.10
851;DHT22;412;51.400;7.480;2023-06-14T01:10:20;19.40;77.80
851;DHT22;412;51.400;7.480;2023-06-14T01:12:55;19.40;78.00
851;DHT22;412;51.400;7.480;2023-06-14T01:15:25;19.40;78.30
851;DHT22;412;51.400;7.480;2023-06-14T01:17:52;19.30;78.00
851;DHT22;412;51.400;7.480;2023-06-14T01:20:21;19.30;78.40
851;DHT22;412;51.400;7.480;2023-06-14T01:22:51;19.30;79.20
851;DHT22;412;51.400;7.480;2023-06-14T01:25:18;19.30;79.00
851;DHT22;412;51.400;7.480;2023-06-14T01:27:48;19.20;79.30
851;DHT22;412;51.400;7.480;2023-06-14T01:30:15;19.20;79.70
851;DHT22;412;51.400;7.480;2023-06-14T01:32:42;19.20;79.80
851;DHT22;412;51.400;7.480;2023-06-14T01:35:08;19.10;79.60
851;DHT22;412;51.400;7.480;2023-06-14T01:37:34;19.10;79.50
851;DHT22;412;51.400;7.480;2023-06-14T01:40:02;18.90;79.20
851;DHT22;412;51.400;7.480;2023-06-14T01:42:30;18.90;79.90
851;DHT22;412;51.400;7.480;2023-06-14T01:44:56;18.70;80.00
851;DHT22;412;51.400;7.480;2023-06-14T01:47:22;18.70;80.20
851;DHT22;412;51.400;7.480;2023-06-14T01:49:48;18.70;80.50
851;DHT22;412;51.400;7.480;2023-06-14T01:52:14;18.60;80.80
851;DHT22;412;51.400;7.480;2023-06-14T01:54:39;18.60;80.60
851;DHT22;412;51.400;7.480;2023-06-14T01:57:08;18.50;80.80
851;DHT22;412;51.400;7.480;2023-06-14T01:59:33;18.50;81.20
851;DHT22;412;51.400;7.480;2023-06-14T02:02:02;18.40;81.50
851;DHT22;412;51.400;7.480;2023-06-14T02:04:28;18.40;81.60
851;DHT22;412;51.400;7.480;2023-06-14T02:06:54;18.40;83.00
851;DHT22;412;51.400;7.480;2023-06-14T02:09:20;18.50;82.30
851;DHT22;412;51.400;7.480;2023-06-14T02:11:46;18.60;82.30
851;DHT22;412;51.400;7.480;2023-06-14T02:14:11;18.60;82.20
851;DHT22;412;51.400;7.480;2023-06-14T02:16:37;18.60;82.20
851;DHT22;412;51.400;7.480;2023-06-14T02:19:05;18.60;82.60
851;DHT22;412;51.400;7.480;2023-06-14T02:21:30;18.60;83.20
851;DHT22;412;51.400;7.480;2023-06-14T02:23:56;18.60;83.40
851;DHT22;412;51.400;7.480;2023-06-14T02:26:23;18.50;83.00
851;DHT22;412;51.400;7.480;2023-06-14T02:28:49;18.60;83.10
851;DHT22;412;51.400;7.480;2023-06-14T02:31:15;18.60;83.50
851;DHT22;412;51.400;7.480;2023-06-14T02:33:41;18.60;84.30
851;DHT22;412;51.400;7.480;2023-06-14T02:36:07;18.60;84.30
851;DHT22;412;51.400;7.480;2023-06-14T02:38:33;18.50;84.60
851;DHT22;412;51.400;7.480;2023-06-14T02:40:59;18.50;85.30
851;DHT22;412;51.400;7.480;2023-06-14T02:43:25;18.50;84.50
851;DHT22;412;51.400;7.480;2023-06-14T02:45:51;18.50;84.00
851;DHT22;412;51.400;7.480;2023-06-14T02:48:17;18.40;83.90
851;DHT22;412;51.400;7.480;2023-06-14T02:50:43;18.40;82.70
851;DHT22;412;51.400;7.480;2023-06-14T02:53:09;18.20;83.40
851;DHT22;412;51.400;7.480;2023-06-14T02:55:34;18.10;82.90
851;DHT22;412;51.400;7.480;2023-06-14T02:58:05;18.10;84.60
851;DHT22;412;51.400;7.480;2023-06-14T03:00:31;18.10;84.10
851;DHT22;412;51.400;7.480;2023-06-14T03:02:56;18.10;84.80
851;DHT22;412;51.400;7.480;2023-06-14T03:05:22;18.10;83.80
851;DHT22;412;51.400;7.480;2023-06-14T03:07:49;18.10;83.40
851;DHT22;412;51.400;7.480;2023-06-14T03:10:15;18.10;83.80
851;DHT22;412;51.400;7.480;2023-06-14T03:12:41;18.10;83.70
851;DHT22;412;51.400;7.480;2023-06-14T03:15:08;18.10;84.40
851;DHT22;412;51.400;7.480;2023-06-14T03:17:34;18.20;84.60
851;DHT22;412;51.400;7.480;2023-06-14T03:20:01;18.20;85.10
851;DHT22;412;51.400;7.480;2023-06-14T03:22:26;18.30;84.30
851;DHT22;412;51.400;7.480;2023-06-14T03:24:54;18.30;84.20
851;DHT22;412;51.400;7.480;2023-06-14T03:27:20;18.30;84.10
851;DHT22;412;51.400;7.480;2023-06-14T03:29:46;18.20;84.40
851;DHT22;412;51.400;7.480;2023-06-14T03:32:12;18.20;84.10
851;DHT22;412;51.400;7.480;2023-06-14T03:34:37;18.20;84.50
851;DHT22;412;51.400;7.480;2023-06-14T03:37:06;18.20;84.20
851;DHT22;412;51.400;7.480;2023-06-14T03:39:32;18.20;82.90
851;DHT22;412;51.400;7.480;2023-06-14T03:41:58;18.10;82.80
851;DHT22;412;51.400;7.480;2023-06-14T03:44:26;18.10;83.20
851;DHT22;412;51.400;7.480;2023-06-14T03:46:52;18.10;83.30
851;DHT22;412;51.400;7.480;2023-06-14T03:49:17;18.10;83.20
851;DHT22;412;51.400;7.480;2023-06-14T03:51:43;18.10;83.50
851;DHT22;412;51.400;7.480;2023-06-14T03:54:09;18.10;83.60
851;DHT22;412;51.400;7.480;2023-06-14T03:56:34;18.00;83.80
851;DHT22;412;51.400;7.480;2023-06-14T03:59:01;18.00;83.50
851;DHT22;412;51.400;7.480;2023-06-14T04:01:28;18.00;83.80
851;DHT22;412;51.400;7.480;2023-06-14T04:03:58;18.00;83.80
851;DHT22;412;51.400;7.480;2023-06-14T04:06:24;18.00;84.00
851;DHT22;412;51.400;7.480;2023-06-14T04:08:51;18.10;84.20
851;DHT22;412;51.400;7.480;2023-06-14T04:11:17;18.10;84.30
851;DHT22;412;51.400;7.480;2023-06-14T04:13:43;18.10;83.40
851;DHT22;412;51.400;7.480;2023-06-14T04:16:09;18.10;83.20
851;DHT22;412;51.400;7.480;2023-06-14T04:18:35;18.20;84.30
851;DHT22;412;51.400;7.480;2023-06-14T04:21:00;18.30;83.50
851;DHT22;412;51.400;7.480;2023-06-14T04:23:26;18.30;82.50
851;DHT22;412;51.400;7.480;2023-06-14T04:25:53;18.30;81.90
851;DHT22;412;51.400;7.480;2023-06-14T04:28:19;18.20;82.90
851;DHT22;412;51.400;7.480;2023-06-14T04:30:45;18.20;83.20
851;DHT22;412;51.400;7.480;2023-06-14T04:33:12;18.10;83.40
851;DHT22;412;51.400;7.480;2023-06-14T04:35:39;17.90;83.80
851;DHT22;412;51.400;7.480;2023-06-14T04:38:06;18.00;84.90
851;DHT22;412;51.400;7.480;2023-06-14T04:40:35;18.10;84.00
851;DHT22;412;51.400;7.480;2023-06-14T04:43:11;18.10;83.40
851;DHT22;412;51.400;7.480;2023-06-14T04:45:40;18.00;83.30
851;DHT22;412;51.400;7.480;2023-06-14T04:48:06;17.90;84.30
851;DHT22;412;51.400;7.480;2023-06-14T04:50:32;18.00;84.70
851;DHT22;412;51.400;7.480;2023-06-14T04:52:59;18.00;84.80
851;DHT22;412;51.400;7.480;2023-06-14T04:55:29;18.10;84.60
851;DHT22;412;51.400;7.480;2023-06-14T04:57:55;18.10;84.50
851;DHT22;412;51.400;7.480;2023-06-14T05:00:21;18.10;84.20
851;DHT22;412;51.400;7.480;2023-06-14T05:02:47;18.10;84.00
851;DHT22;412;51.400;7.480;2023-06-14T05:05:14;18.10;83.40
851;DHT22;412;51.400;7.480;2023-06-14T05:07:41;18.10;83.60
851;DHT22;412;51.400;7.480;2023-06-14T05:10:07;18.20;84.00
851;DHT22;412;51.400;7.480;2023-06-14T05:12:33;18.40;86.40
851;DHT22;412;51.400;7.480;2023-06-14T05:14:59;18.50;89.80
851;DHT22;412;51.400;7.480;2023-06-14T05:17:25;18.50;91.30
851;DHT22;412;51.400;7.480;2023-06-14T05:19:53;18.70;89.20
851;DHT22;412;51.400;7.480;2023-06-14T05:22:21;19.00;87.20
851;DHT22;412;51.400;7.480;2023-06-14T05:24:47;19.20;87.70
851;DHT22;412;51.400;7.480;2023-06-14T05:27:13;19.40;83.60
851;DHT22;412;51.400;7.480;2023-06-14T05:29:39;19.60;82.20
851;DHT22;412;51.400;7.480;2023-06-14T05:32:06;19.60;85.20
851;DHT22;412;51.400;7.480;2023-06-14T05:34:31;19.80;88.40
851;DHT22;412;51.400;7.480;2023-06-14T05:36:57;20.00;90.50
851;DHT22;412;51.400;7.480;2023-06-14T05:39:23;20.20;87.30
851;DHT22;412;51.400;7.480;2023-06-14T05:41:49;20.40;88.00
851;DHT22;412;51.400;7.480;2023-06-14T05:44:16;20.60;85.50
851;DHT22;412;51.400;7.480;2023-06-14T05:46:43;20.70;81.40
851;DHT22;412;51.400;7.480;2023-06-14T05:49:08;20.90;84.70
851;DHT22;412;51.400;7.480;2023-06-14T05:51:34;21.00;85.00
851;DHT22;412;51.400;7.480;2023-06-14T05:54:00;21.20;85.50
851;DHT22;412;51.400;7.480;2023-06-14T05:56:26;21.30;81.50
851;DHT22;412;51.400;7.480;2023-06-14T05:58:52;21.50;85.10
851;DHT22;412;51.400;7.480;2023-06-14T06:01:18;21.60;77.20
851;DHT22;412;51.400;7.480;2023-06-14T06:03:44;21.60;78.90
851;DHT22;412;51.400;7.480;2023-06-14T06:06:12;21.70;79.00
851;DHT22;412;51.400;7.480;2023-06-14T06:08:38;21.80;78.10
851;DHT22;412;51.400;7.480;2023-06-14T06:11:04;21.80;73.80
851;DHT22;412;51.400;7.480;2023-06-14T06:13:30;21.60;77.00
851;DHT22;412;51.400;7.480;2023-06-14T06:15:55;21.70;78.00
851;DHT22;412;51.400;7.480;2023-06-14T06:18:21;21.90;78.00
851;DHT22;412;51.400;7.480;2023-06-14T06:20:47;22.00;77.10
851;DHT22;412;51.400;7.480;2023-06-14T06:23:13;22.10;77.00
851;DHT22;412;51.400;7.480;2023-06-14T06:25:39;22.20;75.90
851;DHT22;412;51.400;7.480;2023-06-14T06:28:06;22.30;75.90
851;DHT22;412;51.400;7.480;2023-06-14T06:30:32;22.30;71.90
851;DHT22;412;51.400;7.480;2023-06-14T06:32:58;22.20;71.90
851;DHT22;412;51.400;7.480;2023-06-14T06:35:23;22.10;72.30
851;DHT22;412;51.400;7.480;2023-06-14T06:37:49;21.90;72.00
851;DHT22;412;51.400;7.480;2023-06-14T06:40:15;21.80;71.60
851;DHT22;412;51.400;7.480;2023-06-14T06:42:41;21.60;73.50
851;DHT22;412;51.400;7.480;2023-06-14T06:45:07;21.50;74.10
851;DHT22;412;51.400;7.480;2023-06-14T06:47:33;21.50;74.20
851;DHT22;412;51.400;7.480;2023-06-14T06:49:58;21.40;75.70
851;DHT22;412;51.400;7.480;2023-06-14T06:52:24;21.30;73.90
851;DHT22;412;51.400;7.480;2023-06-14T06:54:50;21.30;75.30
851;DHT22;412;51.400;7.480;2023-06-14T06:57:20;21.30;73.10
851;DHT22;412;51.400;7.480;2023-06-14T06:59:48;21.20;73.30
851;DHT22;412;51.400;7.480;2023-06-14T07:02:15;21.20;72.80
851;DHT22;412;51.400;7.480;2023-06-14T07:04:40;21.20;74.10
851;DHT22;412;51.400;7.480;2023-06-14T07:07:06;21.30;74.20
851;DHT22;412;51.400;7.480;2023-06-14T07:09:32;21.30;74.80
851;DHT22;412;51.400;7.480;2023-06-14T07:11:58;21.30;72.70
851;DHT22;412;51.400;7.480;2023-06-14T07:14:24;21.40;74.80
851;DHT22;412;51.400;7.480;2023-06-14T07:16:49;21.50;74.40
851;DHT22;412;51.400;7.480;2023-06-14T07:19:15;21.50;73.20
851;DHT22;412;51.400;7.480;2023-06-14T07:21:41;21.50;72.50
851;DHT22;412;51.400;7.480;2023-06-14T07:24:07;21.70;73.50
851;DHT22;412;51.400;7.480;2023-06-14T07:26:34;21.70;72.80
851;DHT22;412;51.400;7.480;2023-06-14T07:29:01;21.80;72.50
851;DHT22;412;51.400;7.480;2023-06-14T07:31:27;21.80;72.40
851;DHT22;412;51.400;7.480;2023-06-14T07:33:52;21.80;70.20
851;DHT22;412;51.400;7.480;2023-06-14T07:36:18;21.90;72.10
851;DHT22;412;51.400;7.480;2023-06-14T07:38:44;22.00;73.40
851;DHT22;412;51.400;7.480;2023-06-14T07:41:11;22.00;70.30
851;DHT22;412;51.400;7.480;2023-06-14T07:43:36;22.10;69.70
851;DHT22;412;51.400;7.480;2023-06-14T07:46:02;22.20;71.90
851;DHT22;412;51.400;7.480;2023-06-14T07:48:29;22.20;70.60
851;DHT22;412;51.400;7.480;2023-06-14T07:50:55;22.30;70.80
851;DHT22;412;51.400;7.480;2023-06-14T07:53:21;22.40;72.40
851;DHT22;412;51.400;7.480;2023-06-14T07:55:47;22.50;70.30
851;DHT22;412;51.400;7.480;2023-06-14T07:58:13;22.60;72.30
851;DHT22;412;51.400;7.480;2023-06-14T08:00:39;22.70;69.60
851;DHT22;412;51.400;7.480;2023-06-14T08:03:05;22.80;69.90
851;DHT22;412;51.400;7.480;2023-06-14T08:05:30;22.90;67.40
851;DHT22;412;51.400;7.480;2023-06-14T08:07:56;22.80;65.60
851;DHT22;412;51.400;7.480;2023-06-14T08:10:22;22.80;67.60
851;DHT22;412;51.400;7.480;2023-06-14T08:12:49;22.90;65.50
851;DHT22;412;51.400;7.480;2023-06-14T08:15:17;23.00;65.80
851;DHT22;412;51.400;7.480;2023-06-14T08:17:43;23.10;65.10
851;DHT22;412;51.400;7.480;2023-06-14T08:20:10;23.20;65.30
851;DHT22;412;51.400;7.480;2023-06-14T08:22:36;23.20;64.10
851;DHT22;412;51.400;7.480;2023-06-14T08:25:02;23.20;64.80
851;DHT22;412;51.400;7.480;2023-06-14T08:27:29;23.20;61.40
851;DHT22;412;51.400;7.480;2023-06-14T08:29:55;23.20;62.30
851;DHT22;412;51.400;7.480;2023-06-14T08:32:22;23.30;60.60
851;DHT22;412;51.400;7.480;2023-06-14T08:34:48;23.30;60.60
851;DHT22;412;51.400;7.480;2023-06-14T08:37:14;23.40;62.40
851;DHT22;412;51.400;7.480;2023-06-14T08:39:39;23.40;62.20
851;DHT22;412;51.400;7.480;2023-06-14T08:42:07;23.40;60.60
851;DHT22;412;51.400;7.480;2023-06-14T08:44:33;23.60;61.70
851;DHT22;412;51.400;7.480;2023-06-14T08:47:02;23.60;61.10
851;DHT22;412;51.400;7.480;2023-06-14T08:49:31;23.70;59.30
851;DHT22;412;51.400;7.480;2023-06-14T08:51:58;23.80;58.30
851;DHT22;412;51.400;7.480;2023-06-14T08:54:28;23.80;60.60
851;DHT22;412;51.400;7.480;2023-06-14T08:57:02;24.00;60.20
851;DHT22;412;51.400;7.480;2023-06-14T08:59:30;24.00;59.10
851;DHT22;412;51.400;7.480;2023-06-14T09:01:59;24.10;60.00
851;DHT22;412;51.400;7.480;2023-06-14T09:04:25;24.20;58.70
851;DHT22;412;51.400;7.480;2023-06-14T09:06:55;24.30;59.60
851;DHT22;412;51.400;7.480;2023-06-14T09:09:21;24.40;59.70
851;DHT22;412;51.400;7.480;2023-06-14T09:11:50;24.40;61.20
851;DHT22;412;51.400;7.480;2023-06-14T09:14:15;24.50;60.00
851;DHT22;412;51.400;7.480;2023-06-14T09:16:41;24.60;59.50
851;DHT22;412;51.400;7.480;2023-06-14T09:19:07;24.60;60.00
851;DHT22;412;51.400;7.480;2023-06-14T09:21:35;24.70;60.10
851;DHT22;412;51.400;7.480;2023-06-14T09:24:02;24.60;60.10
851;DHT22;412;51.400;7.480;2023-06-14T09:26:29;24.70;59.50
851;DHT22;412;51.400;7.480;2023-06-14T09:28:55;24.80;60.40
851;DHT22;412;51.400;7.480;2023-06-14T09:31:21;24.90;62.10
851;DHT22;412;51.400;7.480;2023-06-14T09:33:51;25.00;58.50
851;DHT22;412;51.400;7.480;2023-06-14T09:36:25;25.10;61.60
851;DHT22;412;51.400;7.480;2023-06-14T09:41:39;25.50;61.10
851;DHT22;412;51.400;7.480;2023-06-14T09:44:06;25.50;58.80
851;DHT22;412;51.400;7.480;2023-06-14T09:46:33;25.50;59.60
851;DHT22;412;51.400;7.480;2023-06-14T09:49:00;25.50;59.30
851;DHT22;412;51.400;7.480;2023-06-14T09:51:27;25.60;56.70
851;DHT22;412;51.400;7.480;2023-06-14T09:53:59;25.40;57.10
851;DHT22;412;51.400;7.480;2023-06-14T09:56:32;25.50;57.80
851;DHT22;412;51.400;7.480;2023-06-14T09:58:59;25.60;58.30
851;DHT22;412;51.400;7.480;2023-06-14T10:01:31;25.70;57.60
851;DHT22;412;51.400;7.480;2023-06-14T10:04:04;25.80;57.70
851;DHT22;412;51.400;7.480;2023-06-14T10:06:31;25.80;58.00
851;DHT22;412;51.400;7.480;2023-06-14T10:08:58;26.00;58.40
851;DHT22;412;51.400;7.480;2023-06-14T10:11:28;26.00;58.10
851;DHT22;412;51.400;7.480;2023-06-14T10:13:55;25.90;57.60
851;DHT22;412;51.400;7.480;2023-06-14T10:16:34;25.90;57.30
851;DHT22;412;51.400;7.480;2023-06-14T10:19:25;26.00;58.20
851;DHT22;412;51.400;7.480;2023-06-14T10:22:17;26.10;57.20
851;DHT22;412;51.400;7.480;2023-06-14T10:24:44;26.20;58.80
851;DHT22;412;51.400;7.480;2023-06-14T10:27:14;26.10;56.10
851;DHT22;412;51.400;7.480;2023-06-14T10:32:25;26.30;56.60
851;DHT22;412;51.400;7.480;2023-06-14T10:35:01;26.20;56.60
851;DHT22;412;51.400;7.480;2023-06-14T10:37:27;26.30;58.70
851;DHT22;412;51.400;7.480;2023-06-14T10:39:53;26.30;57.40
851;DHT22;412;51.400;7.480;2023-06-14T10:42:19;26.40;56.90
851;DHT22;412;51.400;7.480;2023-06-14T10:44:49;26.30;57.30
851;DHT22;412;51.400;7.480;2023-06-14T10:47:33;26.30;58.40
851;DHT22;412;51.400;7.480;2023-06-14T10:50:10;26.40;58.40
851;DHT22;412;51.400;7.480;2023-06-14T10:52:40;26.60;57.80
851;DHT22;412;51.400;7.480;2023-06-14T10:57:50;26.80;55.80
851;DHT22;412;51.400;7.480;2023-06-14T11:00:23;26.80;57.00
851;DHT22;412;51.400;7.480;2023-06-14T11:11:01;26.40;56.40
851;DHT22;412;51.400;7.480;2023-06-14T11:13:31;26.50;58.90
851;DHT22;412;51.400;7.480;2023-06-14T11:15:56;26.60;57.00
851;DHT22;412;51.400;7.480;2023-06-14T11:18:23;26.60;58.10
851;DHT22;412;51.400;7.480;2023-06-14T11:20:55;26.70;56.20
851;DHT22;412;51.400;7.480;2023-06-14T11:23:21;26.70;57.50
851;DHT22;412;51.400;7.480;2023-06-14T11:25:52;26.80;58.50
851;DHT22;412;51.400;7.480;2023-06-14T11:28:18;26.90;57.40
851;DHT22;412;51.400;7.480;2023-06-14T11:30:45;27.10;58.70
851;DHT22;412;51.400;7.480;2023-06-14T11:33:17;27.20;57.00
851;DHT22;412;51.400;7.480;2023-06-14T11:35:44;27.20;56.30
851;DHT22;412;51.400;7.480;2023-06-14T11:38:10;27.20;55.90
851;DHT22;412;51.400;7.480;2023-06-14T11:40:38;27.30;56.50
851;DHT22;412;51.400;7.480;2023-06-14T11:43:03;27.20;55.90
851;DHT22;412;51.400;7.480;2023-06-14T11:45:30;27.20;56.30
851;DHT22;412;51.400;7.480;2023-06-14T11:47:57;27.20;56.10
851;DHT22;412;51.400;7.480;2023-06-14T11:50:23;27.20;55.10
851;DHT22;412;51.400;7.480;2023-06-14T11:52:59;27.10;55.00
851;DHT22;412;51.400;7.480;2023-06-14T11:55:29;27.10;55.70
851;DHT22;412;51.400;7.480;2023-06-14T11:57:55;27.00;56.10
851;DHT22;412;51.400;7.480;2023-06-14T12:00:25;27.10;57.40
851;DHT22;412;51.400;7.480;2023-06-14T12:02:54;27.10;57.20
851;DHT22;412;51.400;7.480;2023-06-14T12:05:22;27.20;55.40
851;DHT22;412;51.400;7.480;2023-06-14T12:07:48;27.20;56.90
851;DHT22;412;51.400;7.480;2023-06-14T12:10:16;27.30;56.70
851;DHT22;412;51.400;7.480;2023-06-14T12:12:42;27.50;56.00
851;DHT22;412;51.400;7.480;2023-06-14T12:15:09;27.50;56.20
851;DHT22;412;51.400;7.480;2023-06-14T12:17:38;27.50;53.80
851;DHT22;412;51.400;7.480;2023-06-14T12:20:11;27.40;54.40
851;DHT22;412;51.400;7.480;2023-06-14T12:22:55;27.40;56.10
851;DHT22;412;51.400;7.480;2023-06-14T12:25:32;27.50;56.40
851;DHT22;412;51.400;7.480;2023-06-14T12:28:03;27.40;55.50
851;DHT22;412;51.400;7.480;2023-06-14T12:30:29;27.40;55.30
851;DHT22;412;51.400;7.480;2023-06-14T12:32:55;27.50;55.40
851;DHT22;412;51.400;7.480;2023-06-14T12:35:21;27.40;54.40
851;DHT22;412;51.400;7.480;2023-06-14T12:37:46;27.40;54.70
851;DHT22;412;51.400;7.480;2023-06-14T12:40:13;27.40;54.50
851;DHT22;412;51.400;7.480;2023-06-14T12:42:39;27.30;55.30
851;DHT22;412;51.400;7.480;2023-06-14T12:45:06;27.30;53.60
851;DHT22;412;51.400;7.480;2023-06-14T12:47:32;27.40;55.80
851;DHT22;412;51.400;7.480;2023-06-14T12:49:57;27.40;55.20
851;DHT22;412;51.400;7.480;2023-06-14T12:52:23;27.20;54.90
851;DHT22;412;51.400;7.480;2023-06-14T12:54:49;27.20;55.30
851;DHT22;412;51.400;7.480;2023-06-14T12:57:15;27.30;55.20
851;DHT22;412;51.400;7.480;2023-06-14T12:59:41;27.30;55.40
851;DHT22;412;51.400;7.480;2023-06-14T13:02:25;27.30;54.60
851;DHT22;412;51.400;7.480;2023-06-14T13:04:51;27.20;55.50
851;DHT22;412;51.400;7.480;2023-06-14T13:07:17;27.30;55.60
851;DHT22;412;51.400;7.480;2023-06-14T13:09:43;27.30;55.50
851;DHT22;412;51.400;7.480;2023-06-14T13:12:15;27.30;54.40
851;DHT22;412;51.400;7.480;2023-06-14T13:14:41;27.30;53.90
851;DHT22;412;51.400;7.480;2023-06-14T13:17:10;27.20;54.20
851;DHT22;412;51.400;7.480;2023-06-14T13:19:37;27.10;54.70
851;DHT22;412;51.400;7.480;2023-06-14T13:22:03;27.10;55.40
851;DHT22;412;51.400;7.480;2023-06-14T13:24:29;27.10;53.90
851;DHT22;412;51.400;7.480;2023-06-14T13:26:55;27.00;53.80
851;DHT22;412;51.400;7.480;2023-06-14T13:29:24;27.00;54.60
851;DHT22;412;51.400;7.480;2023-06-14T13:31:50;26.70;53.40
851;DHT22;412;51.400;7.480;2023-06-14T13:34:16;26.70;55.10
851;DHT22;412;51.400;7.480;2023-06-14T13:36:42;26.80;55.30
851;DHT22;412;51.400;7.480;2023-06-14T13:39:07;26.80;55.10
851;DHT22;412;51.400;7.480;2023-06-14T13:41:33;26.80;54.90
851;DHT22;412;51.400;7.480;2023-06-14T13:43:59;26.80;54.90
851;DHT22;412;51.400;7.480;2023-06-14T13:46:26;26.80;54.50
851;DHT22;412;51.400;7.480;2023-06-14T13:48:52;26.80;55.70
851;DHT22;412;51.400;7.480;2023-06-14T13:51:17;26.70;54.50
851;DHT22;412;51.400;7.480;2023-06-14T13:53:50;26.70;54.20
851;DHT22;412;51.400;7.480;2023-06-14T13:56:17;26.80;54.60
851;DHT22;412;51.400;7.480;2023-06-14T13:58:43;26.80;54.40
851;DHT22;412;51.400;7.480;2023-06-14T14:01:09;26.80;54.80
851;DHT22;412;51.400;7.480;2023-06-14T14:03:35;26.90;55.50
851;DHT22;412;51.400;7.480;2023-06-14T14:06:01;26.90;55.30
851;DHT22;412;51.400;7.480;2023-06-14T14:08:30;27.00;54.30
851;DHT22;412;51.400;7.480;2023-06-14T14:10:56;26.90;55.70
851;DHT22;412;51.400;7.480;2023-06-14T14:13:22;26.80;55.10
851;DHT22;412;51.400;7.480;2023-06-14T14:15:48;26.70;52.90
851;DHT22;412;51.400;7.480;2023-06-14T14:18:14;26.70;56.20
851;DHT22;412;51.400;7.480;2023-06-14T14:20:41;26.70;55.80
851;DHT22;412;51.400;7.480;2023-06-14T14:23:07;26.70;57.80
851;DHT22;412;51.400;7.480;2023-06-14T14:25:32;26.70;55.30
851;DHT22;412;51.400;7.480;2023-06-14T14:27:58;26.60;55.40
851;DHT22;412;51.400;7.480;2023-06-14T14:30:24;26.60;55.20
851;DHT22;412;51.400;7.480;2023-06-14T14:32:50;26.50;55.60
851;DHT22;412;51.400;7.480;2023-06-14T14:35:17;26.50;56.40
851;DHT22;412;51.400;7.480;2023-06-14T14:37:43;26.50;55.90
851;DHT22;412;51.400;7.480;2023-06-14T14:40:09;26.50;56.20
851;DHT22;412;51.400;7.480;2023-06-14T14:42:36;26.50;56.90
851;DHT22;412;51.400;7.480;2023-06-14T14:45:02;26.50;55.80
851;DHT22;412;51.400;7.480;2023-06-14T14:47:28;26.60;56.70
851;DHT22;412;51.400;7.480;2023-06-14T14:49:54;26.60;57.10
851;DHT22;412;51.400;7.480;2023-06-14T14:52:20;26.60;55.40
851;DHT22;412;51.400;7.480;2023-06-14T14:54:46;26.60;54.50
851;DHT22;412;51.400;7.480;2023-06-14T14:57:11;26.60;54.80
851;DHT22;412;51.400;7.480;2023-06-14T14:59:38;26.70;56.60
851;DHT22;412;51.400;7.480;2023-06-14T15:02:04;26.70;54.10
851;DHT22;412;51.400;7.480;2023-06-14T15:04:30;26.50;52.30
851;DHT22;412;51.400;7.480;2023-06-14T15:06:57;26.30;56.50
851;DHT22;412;51.400;7.480;2023-06-14T15:09:22;26.30;58.60
851;DHT22;412;51.400;7.480;2023-06-14T15:11:48;26.30;58.00
851;DHT22;412;51.400;7.480;2023-06-14T15:14:14;26.30;59.30
851;DHT22;412;51.400;7.480;2023-06-14T15:16:40;26.20;55.00
851;DHT22;412;51.400;7.480;2023-06-14T15:19:06;26.10;53.40
851;DHT22;412;51.400;7.480;2023-06-14T15:21:32;25.90;58.30
851;DHT22;412;51.400;7.480;2023-06-14T15:23:57;25.60;56.30
851;DHT22;412;51.400;7.480;2023-06-14T15:26:23;25.60;54.30
851;DHT22;412;51.400;7.480;2023-06-14T15:28:50;25.70;55.40
851;DHT22;412;51.400;7.480;2023-06-14T15:31:16;25.80;54.00
851;DHT22;412;51.400;7.480;2023-06-14T15:33:41;25.80;54.20
851;DHT22;412;51.400;7.480;2023-06-14T15:36:07;25.60;52.30
851;DHT22;412;51.400;7.480;2023-06-14T15:38:36;25.40;52.00
851;DHT22;412;51.400;7.480;2023-06-14T15:41:02;25.30;53.50
851;DHT22;412;51.400;7.480;2023-06-14T15:43:28;25.30;54.70
851;DHT22;412;51.400;7.480;2023-06-14T15:45:53;25.40;54.30
851;DHT22;412;51.400;7.480;2023-06-14T15:48:19;25.30;53.10
851;DHT22;412;51.400;7.480;2023-06-14T15:50:46;25.30;53.30
851;DHT22;412;51.400;7.480;2023-06-14T15:53:12;25.30;53.10
851;DHT22;412;51.400;7.480;2023-06-14T15:55:37;25.30;53.50
851;DHT22;412;51.400;7.480;2023-06-14T15:58:03;25.30;53.30
851;DHT22;412;51.400;7.480;2023-06-14T16:00:29;25.30;53.10
851;DHT22;412;51.400;7.480;2023-06-14T16:02:55;25.10;52.30
851;DHT22;412;51.400;7.480;2023-06-14T16:05:20;25.20;56.60
851;DHT22;412;51.400;7.480;2023-06-14T16:07:46;25.10;57.80
851;DHT22;412;51.400;7.480;2023-06-14T16:10:13;25.00;57.20
851;DHT22;412;51.400;7.480;2023-06-14T16:12:39;24.90;56.00
851;DHT22;412;51.400;7.480;2023-06-14T16:15:05;24.90;56.30
851;DHT22;412;51.400;7.480;2023-06-14T16:17:31;24.80;55.80
851;DHT22;412;51.400;7.480;2023-06-14T16:19:57;24.80;54.80
851;DHT22;412;51.400;7.480;2023-06-14T16:22:23;24.70;55.80
851;DHT22;412;51.400;7.480;2023-06-14T16:24:48;24.60;55.90
851;DHT22;412;51.400;7.480;2023-06-14T16:27:14;24.60;55.60
851;DHT22;412;51.400;7.480;2023-06-14T16:29:40;24.60;55.10
851;DHT22;412;51.400;7.480;2023-06-14T16:32:06;24.50;54.70
851;DHT22;412;51.400;7.480;2023-06-14T16:34:34;24.50;52.70
851;DHT22;412;51.400;7.480;2023-06-14T16:37:01;24.50;54.40
851;DHT22;412;51.400;7.480;2023-06-14T16:39:27;24.50;55.00
851;DHT22;412;51.400;7.480;2023-06-14T16:41:53;24.50;55.50
851;DHT22;412;51.400;7.480;2023-06-14T16:44:19;24.50;55.80
851;DHT22;412;51.400;7.480;2023-06-14T16:46:44;24.50;56.40
851;DHT22;412;51.400;7.480;2023-06-14T16:49:10;24.60;56.10
851;DHT22;412;51.400;7.480;2023-06-14T16:51:36;24.70;56.00